sensor_id;sensor_type;location;lat;lon;timestamp;temperature;humidity
29321;DHT22;16323;51.130;6.612;2023-02-28T06:19:03;14.80;44.00
29321;DHT22;16323;51.130;6.612;2023-02-28T07:05:54;15.60;45.50
29321;DHT22;16323;51.130;6.612;2023-02-28T07:08:22;14.60;43.90
29321;DHT22;16323;51.130;6.612;2023-02-28T07:10:52;14.70;43.20
29321;DHT22;16323;51.130;6.612;2023-02-28T07:13:19;14.70;43.00
29321;DHT22;16323;51.130;6.612;2023-02-28T07:15:53;14.70;42.60
29321;DHT22;16323;51.130;6.612;2023-02-28T07:18:20;14.80;42.40
29321;DHT22;16323;51.130;6.612;2023-02-28T07:20:47;14.80;42.30
29321;DHT22;16323;51.130;6.612;2023-02-28T07:23:15;14.80;41.90
29321;DHT22;16323;51.130;6.612;2023-02-28T07:25:42;14.80;42.40
29321;DHT22;16323;51.130;6.612;2023-02-28T07:28:09;14.80;42.50
29321;DHT22;16323;51.130;6.612;2023-02-28T07:30:36;14.80;43.00
29321;DHT22;16323;51.130;6.612;2023-02-28T07:33:03;14.80;42.50
29321;DHT22;16323;51.130;6.612;2023-02-28T07:35:30;14.80;42.80
29321;DHT22;16323;51.130;6.612;2023-02-28T07:37:57;14.80;42.70
29321;DHT22;16323;51.130;6.612;2023-02-28T07:40:26;14.80;42.60
29321;DHT22;16323;51.130;6.612;2023-02-28T07:42:53;14.80;42.30
29321;DHT22;16323;51.130;6.612;2023-02-28T07:45:20;14.80;42.50
29321;DHT22;16323;51.130;6.612;2023-02-28T08:45:50;15.90;41.50
29321;DHT22;16323;51.130;6.612;2023-02-28T08:48:18;15.40;40.70
29321;DHT22;16323;51.130;6.612;2023-02-28T08:50:54;14.90;42.60
29321;DHT22;16323;51.130;6.612;2023-02-28T08:53:21;15.00;40.10
29321;DHT22;16323;51.130;6.612;2023-02-28T08:55:55;15.00;39.80
29321;DHT22;16323;51.130;6.612;2023-02-28T08:58:23;15.00;39.80
29321;DHT22;16323;51.130;6.612;2023-02-28T09:00:52;15.10;39.90
29321;DHT22;16323;51.130;6.612;2023-02-28T09:03:19;15.00;39.90
29321;DHT22;16323;51.130;6.612;2023-02-28T09:05:53;15.00;40.30
29321;DHT22;16323;51.130;6.612;2023-02-28T09:08:20;15.00;40.30
29321;DHT22;16323;51.130;6.612;2023-02-28T09:10:47;15.00;40.30
29321;DHT22;16323;51.130;6.612;2023-02-28T09:13:13;15.00;40.30
29321;DHT22;16323;51.130;6.612;2023-02-28T09:15:40;15.00;40.40
29321;DHT22;16323;51.130;6.612;2023-02-28T09:18:08;15.00;40.10
29321;DHT22;16323;51.130;6.612;2023-02-28T09:20:37;15.00;40.30
29321;DHT22;16323;51.130;6.612;2023-02-28T09:23:05;15.00;40.20
29321;DHT22;16323;51.130;6.612;2023-02-28T09:25:32;15.00;41.00
29321;DHT22;16323;51.130;6.612;2023-02-28T09:27:59;15.10;40.10
29321;DHT22;16323;51.130;6.612;2023-02-28T09:30:26;15.00;39.60
29321;DHT22;16323;51.130;6.612;2023-02-28T09:32:53;15.10;41.90
29321;DHT22;16323;51.130;6.612;2023-02-28T09:35:23;15.10;40.00
29321;DHT22;16323;51.130;6.612;2023-02-28T09:37:52;15.10;39.80
29321;DHT22;16323;51.130;6.612;2023-02-28T09:40:21;15.10;38.90
29321;DHT22;16323;51.130;6.612;2023-02-28T09:43:29;15.10;38.80
29321;DHT22;16323;51.130;6.612;2023-02-28T09:46:05;16.20;39.60
29321;DHT22;16323;51.130;6.612;2023-02-28T10:09:35;16.30;40.20
29321;DHT22;16323;51.130;6.612;2023-02-28T10:43:25;15.10;36.00
29321;DHT22;16323;51.130;6.612;2023-02-28T14:06:17;15.50;36.50
29321;DHT22;16323;51.130;6.612;2023-02-28T14:08:53;15.50;36.50
29321;DHT22;16323;51.130;6.612;2023-02-28T14:11:28;15.60;39.90
29321;DHT22;16323;51.130;6.612;2023-02-28T14:13:56;15.60;39.80
29321;DHT22;16323;51.130;6.612;2023-02-28T14:16:25;15.70;39.30
29321;DHT22;16323;51.130;6.612;2023-02-28T14:18:57;15.60;40.00
29321;DHT22;16323;51.130;6.612;2023-02-28T14:21:29;15.70;38.50
29321;DHT22;16323;51.130;6.612;2023-02-28T14:24:24;15.70;38.50
29321;DHT22;16323;51.130;6.612;2023-02-28T14:30:11;15.60;38.10
29321;DHT22;16323;51.130;6.612;2023-02-28T14:32:46;15.60;37.50
29321;DHT22;16323;51.130;6.612;2023-02-28T14:35:39;15.60;37.70
29321;DHT22;16323;51.130;6.612;2023-02-28T14:38:20;15.60;37.70
29321;DHT22;16323;51.130;6.612;2023-02-28T14:40:55;15.60;38.00
29321;DHT22;16323;51.130;6.612;2023-02-28T14:43:26;15.60;39.10
29321;DHT22;16323;51.130;6.612;2023-02-28T14:45:57;15.60;39.00
29321;DHT22;16323;51.130;6.612;2023-02-28T14:48:27;15.50;39.30
29321;DHT22;16323;51.130;6.612;2023-02-28T14:50:57;15.50;39.00
29321;DHT22;16323;51.130;6.612;2023-02-28T14:53:35;15.50;39.30
29321;DHT22;16323;51.130;6.612;2023-02-28T14:56:05;15.60;39.40
29321;DHT22;16323;51.130;6.612;2023-02-28T14:58:36;15.60;39.60
29321;DHT22;16323;51.130;6.612;2023-02-28T17:23:08;15.80;39.40
29321;DHT22;16323;51.130;6.612;2023-02-28T17:25:35;15.80;39.70
29321;DHT22;16323;51.130;6.612;2023-02-28T17:28:03;15.80;39.80
29321;DHT22;16323;51.130;6.612;2023-02-28T17:30:33;15.80;40.00
29321;DHT22;16323;51.130;6.612;2023-02-28T17:33:01;15.80;40.10
29321;DHT22;16323;51.130;6.612;2023-02-28T17:35:28;15.80;40.10
29321;DHT22;16323;51.130;6.612;2023-02-28T17:37:56;15.80;40.70
29321;DHT22;16323;51.130;6.612;2023-02-28T17:40:27;15.80;40.70
29321;DHT22;16323;51.130;6.612;2023-02-28T17:42:55;15.80;41.50
29321;DHT22;16323;51.130;6.612;2023-02-28T17:45:24;15.80;40.60
29321;DHT22;16323;51.130;6.612;2023-02-28T17:47:53;15.80;40.80
29321;DHT22;16323;51.130;6.612;2023-02-28T17:50:22;15.90;40.50
29321;DHT22;16323;51.130;6.612;2023-02-28T17:52:52;15.90;40.60
29321;DHT22;16323;51.130;6.612;2023-02-28T17:55:22;15.90;40.70
29321;DHT22;16323;51.130;6.612;2023-02-28T17:57:53;15.90;40.60
29321;DHT22;16323;51.130;6.612;2023-02-28T18:00:22;15.90;40.50
29321;DHT22;16323;51.130;6.612;2023-02-28T18:02:52;15.90;40.30
29321;DHT22;16323;51.130;6.612;2023-02-28T19:17:20;15.40;37.00
29321;DHT22;16323;51.130;6.612;2023-02-28T19:19:47;15.40;38.00
29321;DHT22;16323;51.130;6.612;2023-02-28T19:22:14;15.50;38.50
29321;DHT22;16323;51.130;6.612;2023-02-28T19:24:41;15.40;38.80
29321;DHT22;16323;51.130;6.612;2023-02-28T19:27:09;15.40;39.10
29321;DHT22;16323;51.130;6.612;2023-02-28T19:29:37;15.40;39.20
29321;DHT22;16323;51.130;6.612;2023-02-28T19:32:04;15.40;39.40
29321;DHT22;16323;51.130;6.612;2023-02-28T19:34:37;15.50;39.60
29321;DHT22;16323;51.130;6.612;2023-02-28T19:37:08;15.40;39.60
29321;DHT22;16323;51.130;6.612;2023-02-28T19:39:37;15.40;39.70
29321;DHT22;16323;51.130;6.612;2023-02-28T19:42:07;15.40;39.90
29321;DHT22;16323;51.130;6.612;2023-02-28T19:44:35;15.50;39.90
29321;DHT22;16323;51.130;6.612;2023-02-28T19:47:04;15.60;40.00
29321;DHT22;16323;51.130;6.612;2023-02-28T19:49:35;15.60;40.10
29321;DHT22;16323;51.130;6.612;2023-02-28T19:52:04;15.60;40.00
29321;DHT22;16323;51.130;6.612;2023-02-28T19:54:33;15.60;40.00
29321;DHT22;16323;51.130;6.612;2023-02-28T19:57:02;15.60;40.10
29321;DHT22;16323;51.130;6.612;2023-02-28T19:59:31;15.60;40.10
29321;DHT22;16323;51.130;6.612;2023-02-28T20:02:00;15.60;40.10
29321;DHT22;16323;51.130;6.612;2023-02-28T20:04:29;15.60;40.10
29321;DHT22;16323;51.130;6.612;2023-02-28T20:07:00;15.60;40.30
29321;DHT22;16323;51.130;6.612;2023-02-28T20:09:29;15.60;40.30
29321;DHT22;16323;51.130;6.612;2023-02-28T20:11:57;15.60;40.40
29321;DHT22;16323;51.130;6.612;2023-02-28T20:14:27;15.60;40.50
29321;DHT22;16323;51.130;6.612;2023-02-28T20:16:56;15.60;40.50
29321;DHT22;16323;51.130;6.612;2023-02-28T20:19:24;15.50;40.30
29321;DHT22;16323;51.130;6.612;2023-02-28T20:21:53;15.50;40.30
29321;DHT22;16323;51.130;6.612;2023-02-28T20:24:27;15.50;40.30
29321;DHT22;16323;51.130;6.612;2023-02-28T20:26:55;15.50;40.40
29321;DHT22;16323;51.130;6.612;2023-02-28T20:29:24;15.50;40.50
29321;DHT22;16323;51.130;6.612;2023-02-28T20:31:52;15.50;40.40
29321;DHT22;16323;51.130;6.612;2023-02-28T20:34:22;15.60;40.50
29321;DHT22;16323;51.130;6.612;2023-02-28T20:36:51;15.60;40.50
29321;DHT22;16323;51.130;6.612;2023-02-28T20:39:21;15.60;40.50
29321;DHT22;16323;51.130;6.612;2023-02-28T20:41:50;15.60;40.40
29321;DHT22;16323;51.130;6.612;2023-02-28T20:44:18;15.60;39.50
29321;DHT22;16323;51.130;6.612;2023-02-28T20:46:45;15.50;38.80
29321;DHT22;16323;51.130;6.612;2023-02-28T20:49:13;15.50;38.50
29321;DHT22;16323;51.130;6.612;2023-02-28T20:51:43;15.50;38.20
29321;DHT22;16323;51.130;6.612;2023-02-28T20:54:12;15.50;38.00
29321;DHT22;16323;51.130;6.612;2023-02-28T20:56:42;15.40;37.70
29321;DHT22;16323;51.130;6.612;2023-02-28T20:59:12;15.40;37.80
29321;DHT22;16323;51.130;6.612;2023-02-28T21:01:40;15.40;37.60
29321;DHT22;16323;51.130;6.612;2023-02-28T21:04:08;15.40;37.40
29321;DHT22;16323;51.130;6.612;2023-02-28T21:06:38;15.30;37.30
29321;DHT22;16323;51.130;6.612;2023-02-28T21:09:08;15.30;37.30
29321;DHT22;16323;51.130;6.612;2023-02-28T21:11:37;15.30;37.40
29321;DHT22;16323;51.130;6.612;2023-02-28T21:14:07;15.30;37.40
29321;DHT22;16323;51.130;6.612;2023-02-28T21:16:40;15.30;37.20
29321;DHT22;16323;51.130;6.612;2023-02-28T21:19:09;15.30;38.10
29321;DHT22;16323;51.130;6.612;2023-02-28T21:21:39;15.30;38.60
29321;DHT22;16323;51.130;6.612;2023-02-28T21:24:09;15.40;38.90
29321;DHT22;16323;51.130;6.612;2023-02-28T21:26:38;15.50;39.20
29321;DHT22;16323;51.130;6.612;2023-02-28T21:29:07;15.40;39.20
29321;DHT22;16323;51.130;6.612;2023-02-28T21:31:36;15.40;39.20
29321;DHT22;16323;51.130;6.612;2023-02-28T21:34:11;15.40;39.20
29321;DHT22;16323;51.130;6.612;2023-02-28T21:36:40;15.40;39.30
29321;DHT22;16323;51.130;6.612;2023-02-28T21:39:12;15.40;39.30
29321;DHT22;16323;51.130;6.612;2023-02-28T21:41:42;15.40;39.20
29321;DHT22;16323;51.130;6.612;2023-02-28T21:44:13;15.40;39.30
29321;DHT22;16323;51.130;6.612;2023-02-28T21:46:47;15.40;39.30
29321;DHT22;16323;51.130;6.612;2023-02-28T21:49:17;15.40;39.30
29321;DHT22;16323;51.130;6.612;2023-02-28T21:51:45;15.40;39.30
29321;DHT22;16323;51.130;6.612;2023-02-28T21:54:14;15.40;39.20
29321;DHT22;16323;51.130;6.612;2023-02-28T21:56:44;15.40;39.40
29321;DHT22;16323;51.130;6.612;2023-02-28T21:59:16;15.30;39.30
29321;DHT22;16323;51.130;6.612;2023-02-28T22:01:45;15.40;39.50
29321;DHT22;16323;51.130;6.612;2023-02-28T22:04:17;15.30;39.40
29321;DHT22;16323;51.130;6.612;2023-02-28T22:06:48;15.30;39.40
29321;DHT22;16323;51.130;6.612;2023-02-28T22:09:16;15.30;39.40
29321;DHT22;16323;51.130;6.612;2023-02-28T22:11:45;15.40;39.60
29321;DHT22;16323;51.130;6.612;2023-02-28T22:14:14;15.40;39.60
29321;DHT22;16323;51.130;6.612;2023-02-28T22:16:44;15.40;39.60
29321;DHT22;16323;51.130;6.612;2023-02-28T22:19:12;15.40;39.70
29321;DHT22;16323;51.130;6.612;2023-02-28T22:21:42;15.40;39.60
29321;DHT22;16323;51.130;6.612;2023-02-28T22:24:12;15.40;39.70
29321;DHT22;16323;51.130;6.612;2023-02-28T22:26:43;15.40;39.60
29321;DHT22;16323;51.130;6.612;2023-02-28T22:29:12;15.50;39.60
29321;DHT22;16323;51.130;6.612;2023-02-28T22:31:41;15.50;39.60
29321;DHT22;16323;51.130;6.612;2023-02-28T22:34:11;15.50;39.60
29321;DHT22;16323;51.130;6.612;2023-02-28T22:36:42;15.40;39.60
29321;DHT22;16323;51.130;6.612;2023-02-28T22:39:10;15.40;39.50
29321;DHT22;16323;51.130;6.612;2023-02-28T22:41:39;15.40;39.50
29321;DHT22;16323;51.130;6.612;2023-02-28T22:44:07;15.40;39.60
29321;DHT22;16323;51.130;6.612;2023-02-28T22:46:37;15.40;39.60
29321;DHT22;16323;51.130;6.612;2023-02-28T22:49:06;15.40;39.50
29321;DHT22;16323;51.130;6.612;2023-02-28T22:51:36;15.40;39.50
29321;DHT22;16323;51.130;6.612;2023-02-28T22:54:08;15.40;39.60
29321;DHT22;16323;51.130;6.612;2023-02-28T22:56:37;15.40;39.50
29321;DHT22;16323;51.130;6.612;2023-02-28T22:59:05;15.50;39.40
29321;DHT22;16323;51.130;6.612;2023-02-28T23:01:34;15.40;39.20
29321;DHT22;16323;51.130;6.612;2023-02-28T23:04:03;15.40;39.40
29321;DHT22;16323;51.130;6.612;2023-02-28T23:06:35;15.40;39.10
29321;DHT22;16323;51.130;6.612;2023-02-28T23:09:11;15.40;39.30
29321;DHT22;16323;51.130;6.612;2023-02-28T23:11:44;15.40;39.20
29321;DHT22;16323;51.130;6.612;2023-02-28T23:14:18;15.50;39.30
29321;DHT22;16323;51.130;6.612;2023-02-28T23:16:48;15.40;39.10
29321;DHT22;16323;51.130;6.612;2023-02-28T23:19:21;15.50;39.10
29321;DHT22;16323;51.130;6.612;2023-02-28T23:21:52;15.50;39.00
29321;DHT22;16323;51.130;6.612;2023-02-28T23:24:25;15.40;39.00
29321;DHT22;16323;51.130;6.612;2023-02-28T23:26:57;15.40;39.10
29321;DHT22;16323;51.130;6.612;2023-02-28T23:29:28;15.40;39.20
29321;DHT22;16323;51.130;6.612;2023-02-28T23:31:57;15.40;39.10
29321;DHT22;16323;51.130;6.612;2023-02-28T23:34:25;15.40;39.00
29321;DHT22;16323;51.130;6.612;2023-02-28T23:36:56;15.40;39.00
29321;DHT22;16323;51.130;6.612;2023-02-28T23:39:29;15.40;39.00
29321;DHT22;16323;51.130;6.612;2023-02-28T23:41:58;15.40;39.00
29321;DHT22;16323;51.130;6.612;2023-02-28T23:44:27;15.30;38.80
29321;DHT22;16323;51.130;6.612;2023-02-28T23:46:56;15.30;38.80
